sensor_id;sensor_type;location;lat;lon;timestamp;P1;durP1;ratioP1;P2;durP2;ratioP2
2558;SDS011;1289;53.488;10.006;2024-01-16T00:01:16;7.33;;;6.07;;
2558;SDS011;1289;53.488;10.006;2024-01-16T00:03:46;7.10;;;6.50;;
2558;SDS011;1289;53.488;10.006;2024-01-16T00:06:13;7.80;;;7.10;;
2558;SDS011;1289;53.488;10.006;2024-01-16T00:08:40;11.93;;;7.13;;
2558;SDS011;1289;53.488;10.006;2024-01-16T00:11:06;7.50;;;6.90;;
2558;SDS011;1289;53.488;10.006;2024-01-16T00:13:33;7.33;;;6.50;;
2558;SDS011;1289;53.488;10.006;2024-01-16T00:16:01;6.50;;;6.00;;
2558;SDS011;1289;53.488;10.006;2024-01-16T00:18:27;6.73;;;6.03;;
2558;SDS011;1289;53.488;10.006;2024-01-16T00:20:56;6.33;;;5.83;;
2558;SDS011;1289;53.488;10.006;2024-01-16T00:23:22;6.30;;;5.80;;
2558;SDS011;1289;53.488;10.006;2024-01-16T00:25:50;9.73;;;5.67;;
2558;SDS011;1289;53.488;10.006;2024-01-16T00:28:21;10.73;;;7.60;;
2558;SDS011;1289;53.488;10.006;2024-01-16T00:30:48;6.57;;;5.97;;
2558;SDS011;1289;53.488;10.006;2024-01-16T00:33:14;10.70;;;7.20;;
2558;SDS011;1289;53.488;10.006;2024-01-16T00:35:41;6.73;;;6.03;;
2558;SDS011;1289;53.488;10.006;2024-01-16T00:38:09;6.90;;;6.30;;
2558;SDS011;1289;53.488;10.006;2024-01-16T00:40:35;8.33;;;7.13;;
2558;SDS011;1289;53.488;10.006;2024-01-16T00:43:02;8.50;;;7.57;;
2558;SDS011;1289;53.488;10.006;2024-01-16T00:45:29;7.00;;;6.40;;
2558;SDS011;1289;53.488;10.006;2024-01-16T00:47:56;9.83;;;8.83;;
2558;SDS011;1289;53.488;10.006;2024-01-16T00:50:22;8.53;;;7.60;;
2558;SDS011;1289;53.488;10.006;2024-01-16T00:52:50;10.53;;;8.40;;
2558;SDS011;1289;53.488;10.006;2024-01-16T00:55:18;14.13;;;7.97;;
2558;SDS011;1289;53.488;10.006;2024-01-16T00:57:44;8.27;;;7.47;;
2558;SDS011;1289;53.488;10.006;2024-01-16T01:00:11;10.97;;;8.17;;
2558;SDS011;1289;53.488;10.006;2024-01-16T01:02:38;9.43;;;8.20;;
2558;SDS011;1289;53.488;10.006;2024-01-16T01:05:05;8.63;;;7.73;;
2558;SDS011;1289;53.488;10.006;2024-01-16T01:07:33;9.70;;;8.80;;
2558;SDS011;1289;53.488;10.006;2024-01-16T01:09:59;10.57;;;9.57;;
2558;SDS011;1289;53.488;10.006;2024-01-16T01:12:27;12.87;;;10.57;;
2558;SDS011;1289;53.488;10.006;2024-01-16T01:14:54;11.60;;;10.40;;
2558;SDS011;1289;53.488;10.006;2024-01-16T01:17:20;10.67;;;9.57;;
2558;SDS011;1289;53.488;10.006;2024-01-16T01:19:47;9.10;;;8.30;;
2558;SDS011;1289;53.488;10.006;2024-01-16T01:22:14;14.60;;;8.30;;
2558;SDS011;1289;53.488;10.006;2024-01-16T01:24:40;8.67;;;7.80;;
2558;SDS011;1289;53.488;10.006;2024-01-16T01:27:07;8.70;;;8.00;;
2558;SDS011;1289;53.488;10.006;2024-01-16T01:29:35;13.70;;;9.17;;
2558;SDS011;1289;53.488;10.006;2024-01-16T01:32:01;9.33;;;8.20;;
2558;SDS011;1289;53.488;10.006;2024-01-16T01:34:28;9.20;;;8.30;;
2558;SDS011;1289;53.488;10.006;2024-01-16T01:36:54;9.20;;;8.30;;
2558;SDS011;1289;53.488;10.006;2024-01-16T01:39:23;9.97;;;8.13;;
2558;SDS011;1289;53.488;10.006;2024-01-16T01:41:49;14.03;;;9.97;;
2558;SDS011;1289;53.488;10.006;2024-01-16T01:44:16;9.10;;;8.20;;
2558;SDS011;1289;53.488;10.006;2024-01-16T01:46:44;9.67;;;8.77;;
2558;SDS011;1289;53.488;10.006;2024-01-16T01:49:11;11.60;;;9.43;;
2558;SDS011;1289;53.488;10.006;2024-01-16T01:51:38;10.83;;;9.83;;
2558;SDS011;1289;53.488;10.006;2024-01-16T01:54:05;11.00;;;9.83;;
2558;SDS011;1289;53.488;10.006;2024-01-16T01:56:31;10.30;;;8.47;;
2558;SDS011;1289;53.488;10.006;2024-01-16T01:58:58;9.70;;;8.67;;
2558;SDS011;1289;53.488;10.006;2024-01-16T02:01:25;11.17;;;8.27;;
2558;SDS011;1289;53.488;10.006;2024-01-16T02:03:56;10.27;;;8.90;;
2558;SDS011;1289;53.488;10.006;2024-01-16T02:06:24;10.80;;;8.70;;
2558;SDS011;1289;53.488;10.006;2024-01-16T02:08:51;10.03;;;8.83;;
2558;SDS011;1289;53.488;10.006;2024-01-16T02:11:17;11.10;;;10.00;;
2558;SDS011;1289;53.488;10.006;2024-01-16T02:13:44;11.13;;;9.70;;
2558;SDS011;1289;53.488;10.006;2024-01-16T02:16:20;9.70;;;8.70;;
2558;SDS011;1289;53.488;10.006;2024-01-16T02:18:47;9.73;;;8.77;;
2558;SDS011;1289;53.488;10.006;2024-01-16T02:21:17;16.03;;;9.83;;
2558;SDS011;1289;53.488;10.006;2024-01-16T02:23:46;13.67;;;10.27;;
2558;SDS011;1289;53.488;10.006;2024-01-16T02:26:12;10.67;;;9.57;;
2558;SDS011;1289;53.488;10.006;2024-01-16T02:28:40;12.90;;;10.80;;
2558;SDS011;1289;53.488;10.006;2024-01-16T02:31:07;12.80;;;10.67;;
2558;SDS011;1289;53.488;10.006;2024-01-16T02:33:34;15.30;;;12.00;;
2558;SDS011;1289;53.488;10.006;2024-01-16T02:36:00;14.47;;;10.00;;
2558;SDS011;1289;53.488;10.006;2024-01-16T02:38:27;13.20;;;10.23;;
2558;SDS011;1289;53.488;10.006;2024-01-16T02:40:55;12.13;;;10.50;;
2558;SDS011;1289;53.488;10.006;2024-01-16T02:43:21;10.90;;;9.57;;
2558;SDS011;1289;53.488;10.006;2024-01-16T02:45:48;15.17;;;10.20;;
2558;SDS011;1289;53.488;10.006;2024-01-16T02:48:15;11.23;;;9.20;;
2558;SDS011;1289;53.488;10.006;2024-01-16T02:50:41;13.57;;;10.17;;
2558;SDS011;1289;53.488;10.006;2024-01-16T02:53:08;10.40;;;9.30;;
2558;SDS011;1289;53.488;10.006;2024-01-16T02:55:35;9.93;;;8.93;;
2558;SDS011;1289;53.488;10.006;2024-01-16T02:58:03;10.33;;;9.17;;
2558;SDS011;1289;53.488;10.006;2024-01-16T03:00:29;10.07;;;9.03;;
2558;SDS011;1289;53.488;10.006;2024-01-16T03:02:56;11.30;;;8.93;;
2558;SDS011;1289;53.488;10.006;2024-01-16T03:05:23;11.10;;;10.00;;
2558;SDS011;1289;53.488;10.006;2024-01-16T03:07:50;10.70;;;9.60;;
2558;SDS011;1289;53.488;10.006;2024-01-16T03:10:16;10.10;;;9.10;;
2558;SDS011;1289;53.488;10.006;2024-01-16T03:12:43;10.10;;;8.97;;
2558;SDS011;1289;53.488;10.006;2024-01-16T03:15:11;10.20;;;9.20;;
2558;SDS011;1289;53.488;10.006;2024-01-16T03:17:37;11.13;;;8.97;;
2558;SDS011;1289;53.488;10.006;2024-01-16T03:20:05;9.30;;;8.43;;
2558;SDS011;1289;53.488;10.006;2024-01-16T03:22:32;10.77;;;9.77;;
2558;SDS011;1289;53.488;10.006;2024-01-16T03:24:59;9.47;;;8.57;;
2558;SDS011;1289;53.488;10.006;2024-01-16T03:27:25;10.67;;;9.60;;
2558;SDS011;1289;53.488;10.006;2024-01-16T03:29:52;9.50;;;8.03;;
2558;SDS011;1289;53.488;10.006;2024-01-16T03:32:20;13.60;;;9.43;;
2558;SDS011;1289;53.488;10.006;2024-01-16T03:34:46;10.93;;;9.80;;
2558;SDS011;1289;53.488;10.006;2024-01-16T03:37:14;10.53;;;8.90;;
2558;SDS011;1289;53.488;10.006;2024-01-16T03:39:40;13.50;;;10.10;;
2558;SDS011;1289;53.488;10.006;2024-01-16T03:42:07;12.03;;;9.60;;
2558;SDS011;1289;53.488;10.006;2024-01-16T03:44:37;9.07;;;8.20;;
2558;SDS011;1289;53.488;10.006;2024-01-16T03:47:04;10.90;;;9.27;;
2558;SDS011;1289;53.488;10.006;2024-01-16T03:49:32;11.83;;;9.43;;
2558;SDS011;1289;53.488;10.006;2024-01-16T03:52:00;11.80;;;8.00;;
2558;SDS011;1289;53.488;10.006;2024-01-16T03:54:27;12.40;;;8.13;;
2558;SDS011;1289;53.488;10.006;2024-01-16T03:56:53;8.67;;;7.77;;
2558;SDS011;1289;53.488;10.006;2024-01-16T03:59:20;10.00;;;8.00;;
2558;SDS011;1289;53.488;10.006;2024-01-16T04:01:47;8.77;;;7.93;;
2558;SDS011;1289;53.488;10.006;2024-01-16T04:04:14;9.43;;;8.23;;
2558;SDS011;1289;53.488;10.006;2024-01-16T04:06:42;10.10;;;7.80;;
2558;SDS011;1289;53.488;10.006;2024-01-16T04:09:09;10.33;;;7.97;;
2558;SDS011;1289;53.488;10.006;2024-01-16T04:11:35;11.43;;;8.70;;
2558;SDS011;1289;53.488;10.006;2024-01-16T04:14:02;9.00;;;8.10;;
2558;SDS011;1289;53.488;10.006;2024-01-16T04:16:29;8.33;;;7.57;;
2558;SDS011;1289;53.488;10.006;2024-01-16T04:18:55;8.70;;;7.90;;
2558;SDS011;1289;53.488;10.006;2024-01-16T04:21:22;8.17;;;7.37;;
2558;SDS011;1289;53.488;10.006;2024-01-16T04:23:50;11.40;;;7.10;;
2558;SDS011;1289;53.488;10.006;2024-01-16T04:26:17;7.07;;;6.37;;
2558;SDS011;1289;53.488;10.006;2024-01-16T04:28:43;8.30;;;7.20;;
2558;SDS011;1289;53.488;10.006;2024-01-16T04:31:10;7.47;;;6.77;;
2558;SDS011;1289;53.488;10.006;2024-01-16T04:33:38;7.00;;;6.30;;
2558;SDS011;1289;53.488;10.006;2024-01-16T04:36:06;7.40;;;6.60;;
2558;SDS011;1289;53.488;10.006;2024-01-16T04:38:33;8.83;;;6.27;;
2558;SDS011;1289;53.488;10.006;2024-01-16T04:41:02;6.00;;;5.50;;
2558;SDS011;1289;53.488;10.006;2024-01-16T04:43:29;7.77;;;7.07;;
2558;SDS011;1289;53.488;10.006;2024-01-16T04:45:56;7.63;;;5.67;;
2558;SDS011;1289;53.488;10.006;2024-01-16T04:48:22;8.80;;;6.87;;
2558;SDS011;1289;53.488;10.006;2024-01-16T04:50:49;7.07;;;5.77;;
2558;SDS011;1289;53.488;10.006;2024-01-16T04:53:15;8.57;;;6.30;;
2558;SDS011;1289;53.488;10.006;2024-01-16T04:55:42;11.33;;;6.40;;
2558;SDS011;1289;53.488;10.006;2024-01-16T04:58:10;7.17;;;5.80;;
2558;SDS011;1289;53.488;10.006;2024-01-16T05:00:37;6.80;;;6.10;;
2558;SDS011;1289;53.488;10.006;2024-01-16T05:03:04;6.27;;;5.77;;
2558;SDS011;1289;53.488;10.006;2024-01-16T05:05:31;6.53;;;5.93;;
2558;SDS011;1289;53.488;10.006;2024-01-16T05:07:57;5.20;;;4.80;;
2558;SDS011;1289;53.488;10.006;2024-01-16T05:10:27;7.00;;;6.30;;
2558;SDS011;1289;53.488;10.006;2024-01-16T05:12:53;6.47;;;5.87;;
2558;SDS011;1289;53.488;10.006;2024-01-16T05:15:21;6.93;;;5.50;;
2558;SDS011;1289;53.488;10.006;2024-01-16T05:17:48;6.60;;;5.00;;
2558;SDS011;1289;53.488;10.006;2024-01-16T05:20:15;4.90;;;4.43;;
2558;SDS011;1289;53.488;10.006;2024-01-16T05:22:41;5.00;;;4.60;;
2558;SDS011;1289;53.488;10.006;2024-01-16T05:25:09;6.50;;;4.83;;
2558;SDS011;1289;53.488;10.006;2024-01-16T05:27:36;4.53;;;4.13;;
2558;SDS011;1289;53.488;10.006;2024-01-16T05:30:03;8.07;;;5.10;;
2558;SDS011;1289;53.488;10.006;2024-01-16T05:32:32;5.70;;;5.20;;
2558;SDS011;1289;53.488;10.006;2024-01-16T05:34:59;4.63;;;4.30;;
2558;SDS011;1289;53.488;10.006;2024-01-16T05:37:26;5.73;;;5.17;;
2558;SDS011;1289;53.488;10.006;2024-01-16T05:39:54;5.32;;;4.00;;
2558;SDS011;1289;53.488;10.006;2024-01-16T05:42:21;4.07;;;3.60;;
2558;SDS011;1289;53.488;10.006;2024-01-16T05:44:47;4.17;;;3.87;;
2558;SDS011;1289;53.488;10.006;2024-01-16T05:47:14;4.73;;;3.57;;
2558;SDS011;1289;53.488;10.006;2024-01-16T05:49:43;4.03;;;3.60;;
2558;SDS011;1289;53.488;10.006;2024-01-16T05:52:09;4.70;;;4.30;;
2558;SDS011;1289;53.488;10.006;2024-01-16T05:54:36;19.83;;;5.00;;
2558;SDS011;1289;53.488;10.006;2024-01-16T05:57:03;3.77;;;3.47;;
2558;SDS011;1289;53.488;10.006;2024-01-16T05:59:30;4.17;;;3.87;;
2558;SDS011;1289;53.488;10.006;2024-01-16T06:01:56;4.60;;;4.30;;
2558;SDS011;1289;53.488;10.006;2024-01-16T06:04:23;4.40;;;4.00;;
2558;SDS011;1289;53.488;10.006;2024-01-16T06:06:51;4.03;;;3.60;;
2558;SDS011;1289;53.488;10.006;2024-01-16T06:09:18;9.43;;;3.80;;
2558;SDS011;1289;53.488;10.006;2024-01-16T06:11:45;4.20;;;3.90;;
2558;SDS011;1289;53.488;10.006;2024-01-16T06:14:13;5.00;;;4.50;;
2558;SDS011;1289;53.488;10.006;2024-01-16T06:16:44;3.63;;;3.43;;
2558;SDS011;1289;53.488;10.006;2024-01-16T06:19:11;6.67;;;4.33;;
2558;SDS011;1289;53.488;10.006;2024-01-16T06:21:38;4.50;;;4.10;;
2558;SDS011;1289;53.488;10.006;2024-01-16T06:24:06;4.27;;;3.87;;
2558;SDS011;1289;53.488;10.006;2024-01-16T06:26:33;4.57;;;4.27;;
2558;SDS011;1289;53.488;10.006;2024-01-16T06:28:59;8.20;;;3.97;;
2558;SDS011;1289;53.488;10.006;2024-01-16T06:31:26;4.53;;;4.23;;
2558;SDS011;1289;53.488;10.006;2024-01-16T06:33:52;5.03;;;4.17;;
2558;SDS011;1289;53.488;10.006;2024-01-16T06:36:19;7.70;;;5.07;;
2558;SDS011;1289;53.488;10.006;2024-01-16T06:38:46;7.40;;;5.00;;
2558;SDS011;1289;53.488;10.006;2024-01-16T06:41:14;5.73;;;4.60;;
2558;SDS011;1289;53.488;10.006;2024-01-16T06:43:40;8.47;;;5.67;;
2558;SDS011;1289;53.488;10.006;2024-01-16T06:46:07;9.80;;;5.60;;
2558;SDS011;1289;53.488;10.006;2024-01-16T06:48:34;5.30;;;4.90;;
2558;SDS011;1289;53.488;10.006;2024-01-16T06:51:01;5.43;;;4.97;;
2558;SDS011;1289;53.488;10.006;2024-01-16T06:53:28;10.80;;;5.17;;
2558;SDS011;1289;53.488;10.006;2024-01-16T06:55:54;5.47;;;4.97;;
2558;SDS011;1289;53.488;10.006;2024-01-16T06:58:22;6.07;;;5.33;;
2558;SDS011;1289;53.488;10.006;2024-01-16T07:00:49;8.37;;;4.90;;
2558;SDS011;1289;53.488;10.006;2024-01-16T07:03:15;7.37;;;5.67;;
2558;SDS011;1289;53.488;10.006;2024-01-16T07:05:42;6.43;;;5.83;;
2558;SDS011;1289;53.488;10.006;2024-01-16T07:08:09;6.30;;;5.70;;
2558;SDS011;1289;53.488;10.006;2024-01-16T07:10:35;6.30;;;5.17;;
2558;SDS011;1289;53.488;10.006;2024-01-16T07:13:02;6.63;;;4.60;;
2558;SDS011;1289;53.488;10.006;2024-01-16T07:15:30;8.40;;;6.57;;
2558;SDS011;1289;53.488;10.006;2024-01-16T07:17:57;9.87;;;6.10;;
2558;SDS011;1289;53.488;10.006;2024-01-16T07:20:23;6.10;;;5.63;;
2558;SDS011;1289;53.488;10.006;2024-01-16T07:22:50;9.93;;;6.30;;
2558;SDS011;1289;53.488;10.006;2024-01-16T07:25:17;9.90;;;7.70;;
2558;SDS011;1289;53.488;10.006;2024-01-16T07:27:43;8.33;;;6.13;;
2558;SDS011;1289;53.488;10.006;2024-01-16T07:30:13;8.07;;;7.37;;
2558;SDS011;1289;53.488;10.006;2024-01-16T07:32:42;10.33;;;7.03;;
2558;SDS011;1289;53.488;10.006;2024-01-16T07:35:08;10.40;;;7.30;;
2558;SDS011;1289;53.488;10.006;2024-01-16T07:37:35;7.70;;;7.00;;
2558;SDS011;1289;53.488;10.006;2024-01-16T07:40:01;13.97;;;7.17;;
2558;SDS011;1289;53.488;10.006;2024-01-16T07:42:31;9.17;;;7.77;;
2558;SDS011;1289;53.488;10.006;2024-01-16T07:44:59;11.20;;;7.30;;
2558;SDS011;1289;53.488;10.006;2024-01-16T07:47:26;10.27;;;7.77;;
2558;SDS011;1289;53.488;10.006;2024-01-16T07:49:54;8.77;;;7.87;;
2558;SDS011;1289;53.488;10.006;2024-01-16T07:52:21;11.50;;;8.60;;
2558;SDS011;1289;53.488;10.006;2024-01-16T07:54:47;12.00;;;8.67;;
2558;SDS011;1289;53.488;10.006;2024-01-16T07:57:14;8.93;;;8.03;;
2558;SDS011;1289;53.488;10.006;2024-01-16T07:59:41;9.80;;;8.83;;
2558;SDS011;1289;53.488;10.006;2024-01-16T08:02:07;13.47;;;9.13;;
2558;SDS011;1289;53.488;10.006;2024-01-16T08:04:34;12.50;;;7.83;;
2558;SDS011;1289;53.488;10.006;2024-01-16T08:07:02;10.37;;;9.20;;
2558;SDS011;1289;53.488;10.006;2024-01-16T08:09:29;16.10;;;9.57;;
2558;SDS011;1289;53.488;10.006;2024-01-16T08:11:55;9.13;;;8.30;;
2558;SDS011;1289;53.488;10.006;2024-01-16T08:14:22;9.97;;;9.07;;
2558;SDS011;1289;53.488;10.006;2024-01-16T08:16:49;12.93;;;9.40;;
2558;SDS011;1289;53.488;10.006;2024-01-16T08:19:16;13.90;;;9.50;;
2558;SDS011;1289;53.488;10.006;2024-01-16T08:21:42;13.47;;;9.90;;
2558;SDS011;1289;53.488;10.006;2024-01-16T08:24:10;11.33;;;9.40;;
2558;SDS011;1289;53.488;10.006;2024-01-16T08:26:37;11.07;;;8.50;;
2558;SDS011;1289;53.488;10.006;2024-01-16T08:29:04;10.50;;;9.50;;
2558;SDS011;1289;53.488;10.006;2024-01-16T08:31:31;10.10;;;9.10;;
2558;SDS011;1289;53.488;10.006;2024-01-16T08:33:57;13.93;;;9.40;;
2558;SDS011;1289;53.488;10.006;2024-01-16T08:36:24;14.90;;;10.40;;
2558;SDS011;1289;53.488;10.006;2024-01-16T08:38:51;10.70;;;9.30;;
2558;SDS011;1289;53.488;10.006;2024-01-16T08:41:20;10.13;;;8.53;;
2558;SDS011;1289;53.488;10.006;2024-01-16T08:43:47;11.20;;;8.80;;
2558;SDS011;1289;53.488;10.006;2024-01-16T08:46:14;15.53;;;10.17;;
2558;SDS011;1289;53.488;10.006;2024-01-16T08:48:41;11.30;;;9.77;;
2558;SDS011;1289;53.488;10.006;2024-01-16T08:51:08;18.30;;;11.77;;
2558;SDS011;1289;53.488;10.006;2024-01-16T08:53:39;12.33;;;11.03;;
2558;SDS011;1289;53.488;10.006;2024-01-16T08:56:05;13.00;;;10.70;;
2558;SDS011;1289;53.488;10.006;2024-01-16T08:58:34;14.93;;;10.90;;
2558;SDS011;1289;53.488;10.006;2024-01-16T09:01:03;15.27;;;11.93;;
2558;SDS011;1289;53.488;10.006;2024-01-16T09:03:30;14.17;;;12.27;;
2558;SDS011;1289;53.488;10.006;2024-01-16T09:05:56;13.27;;;11.40;;
2558;SDS011;1289;53.488;10.006;2024-01-16T09:08:23;14.83;;;11.70;;
2558;SDS011;1289;53.488;10.006;2024-01-16T09:10:51;16.53;;;11.30;;
2558;SDS011;1289;53.488;10.006;2024-01-16T09:13:18;14.90;;;11.40;;
2558;SDS011;1289;53.488;10.006;2024-01-16T09:15:47;10.47;;;9.33;;
2558;SDS011;1289;53.488;10.006;2024-01-16T09:18:14;15.77;;;11.67;;
2558;SDS011;1289;53.488;10.006;2024-01-16T09:20:41;20.43;;;11.67;;
2558;SDS011;1289;53.488;10.006;2024-01-16T09:23:07;13.50;;;10.10;;
2558;SDS011;1289;53.488;10.006;2024-01-16T09:25:34;11.67;;;10.03;;
2558;SDS011;1289;53.488;10.006;2024-01-16T09:28:01;12.93;;;9.93;;
2558;SDS011;1289;53.488;10.006;2024-01-16T09:30:28;11.97;;;9.33;;
2558;SDS011;1289;53.488;10.006;2024-01-16T09:32:56;10.60;;;9.60;;
2558;SDS011;1289;53.488;10.006;2024-01-16T09:35:22;12.97;;;8.97;;
2558;SDS011;1289;53.488;10.006;2024-01-16T09:37:49;8.70;;;7.90;;
2558;SDS011;1289;53.488;10.006;2024-01-16T09:40:16;7.83;;;7.03;;
2558;SDS011;1289;53.488;10.006;2024-01-16T09:42:43;8.30;;;7.23;;
2558;SDS011;1289;53.488;10.006;2024-01-16T09:45:09;10.03;;;7.37;;
2558;SDS011;1289;53.488;10.006;2024-01-16T09:47:37;8.97;;;7.23;;
2558;SDS011;1289;53.488;10.006;2024-01-16T09:50:05;8.93;;;7.40;;
2558;SDS011;1289;53.488;10.006;2024-01-16T09:52:32;10.13;;;6.17;;
2558;SDS011;1289;53.488;10.006;2024-01-16T09:54:59;7.93;;;6.00;;
2558;SDS011;1289;53.488;10.006;2024-01-16T09:57:26;11.90;;;6.43;;
2558;SDS011;1289;53.488;10.006;2024-01-16T09:59:52;11.00;;;5.40;;
2558;SDS011;1289;53.488;10.006;2024-01-16T10:02:19;7.30;;;5.73;;
2558;SDS011;1289;53.488;10.006;2024-01-16T10:04:47;6.03;;;5.50;;
2558;SDS011;1289;53.488;10.006;2024-01-16T10:07:15;7.47;;;6.13;;
2558;SDS011;1289;53.488;10.006;2024-01-16T10:09:43;7.63;;;5.50;;
2558;SDS011;1289;53.488;10.006;2024-01-16T10:12:09;6.63;;;6.00;;
2558;SDS011;1289;53.488;10.006;2024-01-16T10:14:36;6.33;;;5.70;;
2558;SDS011;1289;53.488;10.006;2024-01-16T10:17:03;6.87;;;6.17;;
2558;SDS011;1289;53.488;10.006;2024-01-16T10:19:32;10.63;;;6.17;;
2558;SDS011;1289;53.488;10.006;2024-01-16T10:22:01;17.37;;;15.57;;
2558;SDS011;1289;53.488;10.006;2024-01-16T10:24:30;19.03;;;17.13;;
2558;SDS011;1289;53.488;10.006;2024-01-16T10:26:59;18.07;;;16.27;;
2558;SDS011;1289;53.488;10.006;2024-01-16T10:29:28;18.70;;;16.23;;
2558;SDS011;1289;53.488;10.006;2024-01-16T10:31:54;12.77;;;11.30;;
2558;SDS011;1289;53.488;10.006;2024-01-16T10:34:21;25.90;;;17.20;;
2558;SDS011;1289;53.488;10.006;2024-01-16T10:36:49;32.30;;;22.80;;
2558;SDS011;1289;53.488;10.006;2024-01-16T10:39:17;24.27;;;19.10;;
2558;SDS011;1289;53.488;10.006;2024-01-16T10:41:54;31.33;;;18.90;;
2558;SDS011;1289;53.488;10.006;2024-01-16T10:44:22;22.73;;;16.77;;
2558;SDS011;1289;53.488;10.006;2024-01-16T10:46:49;14.80;;;13.20;;
2558;SDS011;1289;53.488;10.006;2024-01-16T10:49:15;18.27;;;14.37;;
2558;SDS011;1289;53.488;10.006;2024-01-16T10:51:42;18.20;;;12.50;;
2558;SDS011;1289;53.488;10.006;2024-01-16T10:54:11;17.30;;;11.97;;
2558;SDS011;1289;53.488;10.006;2024-01-16T10:56:41;14.17;;;11.33;;
2558;SDS011;1289;53.488;10.006;2024-01-16T10:59:18;10.30;;;8.63;;
2558;SDS011;1289;53.488;10.006;2024-01-16T11:01:55;12.97;;;8.60;;
2558;SDS011;1289;53.488;10.006;2024-01-16T11:04:23;8.40;;;7.40;;
2558;SDS011;1289;53.488;10.006;2024-01-16T11:06:51;6.80;;;6.10;;
2558;SDS011;1289;53.488;10.006;2024-01-16T11:09:18;15.13;;;6.20;;
2558;SDS011;1289;53.488;10.006;2024-01-16T11:11:45;10.90;;;5.83;;
2558;SDS011;1289;53.488;10.006;2024-01-16T11:14:14;5.87;;;5.33;;
2558;SDS011;1289;53.488;10.006;2024-01-16T11:16:41;10.47;;;6.60;;
2558;SDS011;1289;53.488;10.006;2024-01-16T11:19:08;5.23;;;4.73;;
2558;SDS011;1289;53.488;10.006;2024-01-16T11:21:36;6.20;;;5.17;;
2558;SDS011;1289;53.488;10.006;2024-01-16T11:24:04;6.37;;;5.77;;
2558;SDS011;1289;53.488;10.006;2024-01-16T11:26:32;6.43;;;5.43;;
2558;SDS011;1289;53.488;10.006;2024-01-16T11:32:03;10.73;;;8.13;;
2558;SDS011;1289;53.488;10.006;2024-01-16T11:37:24;5.67;;;4.50;;
2558;SDS011;1289;53.488;10.006;2024-01-16T11:39:54;5.17;;;4.50;;
2558;SDS011;1289;53.488;10.006;2024-01-16T11:42:52;5.50;;;4.70;;
2558;SDS011;1289;53.488;10.006;2024-01-16T11:48:20;6.20;;;4.67;;
2558;SDS011;1289;53.488;10.006;2024-01-16T11:50:46;8.83;;;5.20;;
2558;SDS011;1289;53.488;10.006;2024-01-16T11:56:05;9.13;;;5.17;;
2558;SDS011;1289;53.488;10.006;2024-01-16T11:58:42;8.27;;;5.60;;
2558;SDS011;1289;53.488;10.006;2024-01-16T12:01:13;5.63;;;5.00;;
2558;SDS011;1289;53.488;10.006;2024-01-16T12:03:41;11.03;;;5.27;;
2558;SDS011;1289;53.488;10.006;2024-01-16T12:06:07;9.27;;;5.40;;
2558;SDS011;1289;53.488;10.006;2024-01-16T12:08:34;7.50;;;5.90;;
2558;SDS011;1289;53.488;10.006;2024-01-16T12:11:02;7.93;;;5.40;;
2558;SDS011;1289;53.488;10.006;2024-01-16T12:13:30;8.20;;;5.07;;
2558;SDS011;1289;53.488;10.006;2024-01-16T12:16:00;6.20;;;5.20;;
2558;SDS011;1289;53.488;10.006;2024-01-16T12:18:30;9.37;;;5.27;;
2558;SDS011;1289;53.488;10.006;2024-01-16T12:20:56;5.80;;;5.20;;
2558;SDS011;1289;53.488;10.006;2024-01-16T12:23:24;5.73;;;5.13;;
2558;SDS011;1289;53.488;10.006;2024-01-16T12:25:52;6.30;;;5.23;;
2558;SDS011;1289;53.488;10.006;2024-01-16T12:28:20;6.00;;;5.40;;
2558;SDS011;1289;53.488;10.006;2024-01-16T12:30:48;10.13;;;5.77;;
2558;SDS011;1289;53.488;10.006;2024-01-16T12:33:15;6.87;;;5.33;;
2558;SDS011;1289;53.488;10.006;2024-01-16T12:35:43;6.70;;;5.10;;
2558;SDS011;1289;53.488;10.006;2024-01-16T12:38:11;6.17;;;5.53;;
2558;SDS011;1289;53.488;10.006;2024-01-16T12:40:39;6.10;;;5.57;;
2558;SDS011;1289;53.488;10.006;2024-01-16T12:43:07;5.33;;;4.87;;
2558;SDS011;1289;53.488;10.006;2024-01-16T12:45:34;6.50;;;5.10;;
2558;SDS011;1289;53.488;10.006;2024-01-16T12:48:01;11.57;;;4.97;;
2558;SDS011;1289;53.488;10.006;2024-01-16T12:50:29;5.97;;;4.70;;
2558;SDS011;1289;53.488;10.006;2024-01-16T12:53:04;10.03;;;5.40;;
2558;SDS011;1289;53.488;10.006;2024-01-16T12:55:32;6.27;;;5.30;;
2558;SDS011;1289;53.488;10.006;2024-01-16T12:58:12;9.10;;;5.90;;
2558;SDS011;1289;53.488;10.006;2024-01-16T13:00:42;6.20;;;5.10;;
2558;SDS011;1289;53.488;10.006;2024-01-16T13:03:14;7.67;;;5.90;;
2558;SDS011;1289;53.488;10.006;2024-01-16T13:05:41;6.23;;;5.00;;
2558;SDS011;1289;53.488;10.006;2024-01-16T13:08:09;6.73;;;5.17;;
2558;SDS011;1289;53.488;10.006;2024-01-16T13:10:43;8.20;;;6.13;;
2558;SDS011;1289;53.488;10.006;2024-01-16T13:13:13;6.23;;;5.60;;
2558;SDS011;1289;53.488;10.006;2024-01-16T13:15:40;5.90;;;5.40;;
2558;SDS011;1289;53.488;10.006;2024-01-16T13:18:16;6.93;;;5.07;;
2558;SDS011;1289;53.488;10.006;2024-01-16T13:20:44;5.37;;;4.80;;
2558;SDS011;1289;53.488;10.006;2024-01-16T13:23:13;6.43;;;4.60;;
2558;SDS011;1289;53.488;10.006;2024-01-16T13:25:41;4.97;;;4.47;;
2558;SDS011;1289;53.488;10.006;2024-01-16T13:28:09;7.13;;;5.17;;
2558;SDS011;1289;53.488;10.006;2024-01-16T13:30:36;5.57;;;5.00;;
2558;SDS011;1289;53.488;10.006;2024-01-16T13:33:03;7.13;;;6.30;;
2558;SDS011;1289;53.488;10.006;2024-01-16T13:35:30;5.83;;;5.10;;
2558;SDS011;1289;53.488;10.006;2024-01-16T13:37:58;6.50;;;5.90;;
2558;SDS011;1289;53.488;10.006;2024-01-16T13:40:26;9.57;;;6.30;;
2558;SDS011;1289;53.488;10.006;2024-01-16T13:42:53;6.93;;;6.20;;
2558;SDS011;1289;53.488;10.006;2024-01-16T13:45:19;9.73;;;7.53;;
2558;SDS011;1289;53.488;10.006;2024-01-16T13:47:46;8.00;;;7.20;;
2558;SDS011;1289;53.488;10.006;2024-01-16T13:50:12;9.33;;;8.50;;
2558;SDS011;1289;53.488;10.006;2024-01-16T13:52:39;9.50;;;7.50;;
2558;SDS011;1289;53.488;10.006;2024-01-16T13:55:06;10.40;;;7.83;;
2558;SDS011;1289;53.488;10.006;2024-01-16T13:57:34;8.70;;;6.93;;
2558;SDS011;1289;53.488;10.006;2024-01-16T14:00:01;14.27;;;7.40;;
2558;SDS011;1289;53.488;10.006;2024-01-16T14:02:37;6.90;;;6.17;;
2558;SDS011;1289;53.488;10.006;2024-01-16T14:05:06;19.00;;;9.23;;
2558;SDS011;1289;53.488;10.006;2024-01-16T14:07:35;8.40;;;6.73;;
2558;SDS011;1289;53.488;10.006;2024-01-16T14:10:02;7.63;;;6.33;;
2558;SDS011;1289;53.488;10.006;2024-01-16T14:12:31;7.87;;;6.57;;
2558;SDS011;1289;53.488;10.006;2024-01-16T14:14:59;7.90;;;6.70;;
2558;SDS011;1289;53.488;10.006;2024-01-16T14:17:28;8.43;;;7.10;;
2558;SDS011;1289;53.488;10.006;2024-01-16T14:19:54;7.80;;;7.00;;
2558;SDS011;1289;53.488;10.006;2024-01-16T14:22:21;7.73;;;6.97;;
2558;SDS011;1289;53.488;10.006;2024-01-16T14:24:47;7.30;;;6.47;;
2558;SDS011;1289;53.488;10.006;2024-01-16T14:27:16;9.67;;;6.60;;
2558;SDS011;1289;53.488;10.006;2024-01-16T14:29:42;12.57;;;7.10;;
2558;SDS011;1289;53.488;10.006;2024-01-16T14:32:10;10.47;;;7.03;;
2558;SDS011;1289;53.488;10.006;2024-01-16T14:34:37;14.00;;;5.73;;
2558;SDS011;1289;53.488;10.006;2024-01-16T14:37:04;7.40;;;6.37;;
2558;SDS011;1289;53.488;10.006;2024-01-16T14:39:31;14.57;;;6.90;;
2558;SDS011;1289;53.488;10.006;2024-01-16T14:41:58;7.23;;;6.40;;
2558;SDS011;1289;53.488;10.006;2024-01-16T14:44:24;6.50;;;5.80;;
2558;SDS011;1289;53.488;10.006;2024-01-16T14:46:51;14.47;;;6.30;;
2558;SDS011;1289;53.488;10.006;2024-01-16T14:49:20;6.67;;;6.07;;
2558;SDS011;1289;53.488;10.006;2024-01-16T14:51:47;7.00;;;6.13;;
2558;SDS011;1289;53.488;10.006;2024-01-16T14:54:13;8.23;;;6.43;;
2558;SDS011;1289;53.488;10.006;2024-01-16T14:56:40;11.10;;;6.80;;
2558;SDS011;1289;53.488;10.006;2024-01-16T14:59:07;8.90;;;6.00;;
2558;SDS011;1289;53.488;10.006;2024-01-16T15:01:34;6.80;;;6.20;;
2558;SDS011;1289;53.488;10.006;2024-01-16T15:04:00;8.70;;;6.10;;
2558;SDS011;1289;53.488;10.006;2024-01-16T15:06:28;8.87;;;6.47;;